sensor_id;sensor_type;location;lat;lon;timestamp;temperature;humidity
15426;DHT22;7812;50.072;7.036;2023-06-01T00:01:38;12.00;99.90
15426;DHT22;7812;50.072;7.036;2023-06-01T00:04:04;12.00;99.90
15426;DHT22;7812;50.072;7.036;2023-06-01T00:06:30;11.90;99.90
15426;DHT22;7812;50.072;7.036;2023-06-01T00:08:57;11.90;99.90
15426;DHT22;7812;50.072;7.036;2023-06-01T00:11:23;11.80;99.90
15426;DHT22;7812;50.072;7.036;2023-06-01T00:13:51;11.80;99.90
15426;DHT22;7812;50.072;7.036;2023-06-01T00:16:17;11.80;99.90
15426;DHT22;7812;50.072;7.036;2023-06-01T00:18:44;11.80;99.90
15426;DHT22;7812;50.072;7.036;2023-06-01T00:21:10;11.80;99.90
15426;DHT22;7812;50.072;7.036;2023-06-01T00:23:36;11.80;99.90
15426;DHT22;7812;50.072;7.036;2023-06-01T00:26:02;11.80;99.90
15426;DHT22;7812;50.072;7.036;2023-06-01T00:28:28;11.80;99.90
15426;DHT22;7812;50.072;7.036;2023-06-01T00:30:53;11.70;99.90
15426;DHT22;7812;50.072;7.036;2023-06-01T00:33:20;11.70;99.90
15426;DHT22;7812;50.072;7.036;2023-06-01T00:35:46;11.70;99.90
15426;DHT22;7812;50.072;7.036;2023-06-01T00:38:12;11.60;99.90
15426;DHT22;7812;50.072;7.036;2023-06-01T00:40:37;11.60;99.90
15426;DHT22;7812;50.072;7.036;2023-06-01T00:43:03;11.50;99.90
15426;DHT22;7812;50.072;7.036;2023-06-01T00:45:30;11.40;99.90
15426;DHT22;7812;50.072;7.036;2023-06-01T00:47:56;11.40;99.90
15426;DHT22;7812;50.072;7.036;2023-06-01T00:50:22;11.40;99.90
15426;DHT22;7812;50.072;7.036;2023-06-01T00:52:51;11.30;99.90
15426;DHT22;7812;50.072;7.036;2023-06-01T00:55:19;11.40;99.90
15426;DHT22;7812;50.072;7.036;2023-06-01T00:57:46;11.30;99.90
15426;DHT22;7812;50.072;7.036;2023-06-01T01:00:14;11.30;99.90
15426;DHT22;7812;50.072;7.036;2023-06-01T01:02:41;11.20;99.90
15426;DHT22;7812;50.072;7.036;2023-06-01T01:05:08;11.20;99.90
15426;DHT22;7812;50.072;7.036;2023-06-01T01:10:24;11.00;99.90
15426;DHT22;7812;50.072;7.036;2023-06-01T01:13:10;11.00;99.90
15426;DHT22;7812;50.072;7.036;2023-06-01T01:18:24;11.10;99.90
15426;DHT22;7812;50.072;7.036;2023-06-01T01:20:58;11.00;99.90
15426;DHT22;7812;50.072;7.036;2023-06-01T01:26:12;11.00;99.90
15426;DHT22;7812;50.072;7.036;2023-06-01T01:28:49;11.00;99.90
15426;DHT22;7812;50.072;7.036;2023-06-01T01:31:23;10.90;99.90
15426;DHT22;7812;50.072;7.036;2023-06-01T01:33:50;10.90;99.90
15426;DHT22;7812;50.072;7.036;2023-06-01T01:36:18;10.90;99.90
15426;DHT22;7812;50.072;7.036;2023-06-01T01:38:44;10.90;99.90
15426;DHT22;7812;50.072;7.036;2023-06-01T01:41:10;10.90;99.90
15426;DHT22;7812;50.072;7.036;2023-06-01T01:43:37;10.70;99.90
15426;DHT22;7812;50.072;7.036;2023-06-01T01:46:23;10.60;99.90
15426;DHT22;7812;50.072;7.036;2023-06-01T01:51:38;10.50;99.90
15426;DHT22;7812;50.072;7.036;2023-06-01T01:54:05;10.60;99.90
15426;DHT22;7812;50.072;7.036;2023-06-01T01:56:36;10.70;99.90
15426;DHT22;7812;50.072;7.036;2023-06-01T01:59:03;10.70;99.90
15426;DHT22;7812;50.072;7.036;2023-06-01T02:01:30;10.70;99.90
15426;DHT22;7812;50.072;7.036;2023-06-01T02:04:03;10.70;99.90
15426;DHT22;7812;50.072;7.036;2023-06-01T02:06:29;10.60;99.90
15426;DHT22;7812;50.072;7.036;2023-06-01T02:08:55;10.60;99.90
15426;DHT22;7812;50.072;7.036;2023-06-01T02:11:21;10.60;99.90
15426;DHT22;7812;50.072;7.036;2023-06-01T02:13:47;10.60;99.90
15426;DHT22;7812;50.072;7.036;2023-06-01T02:16:13;10.50;99.90
15426;DHT22;7812;50.072;7.036;2023-06-01T02:18:39;10.50;99.90
15426;DHT22;7812;50.072;7.036;2023-06-01T02:21:07;10.30;99.90
15426;DHT22;7812;50.072;7.036;2023-06-01T02:23:34;10.30;99.90
15426;DHT22;7812;50.072;7.036;2023-06-01T02:26:00;10.20;99.90
15426;DHT22;7812;50.072;7.036;2023-06-01T02:28:26;10.20;99.90
15426;DHT22;7812;50.072;7.036;2023-06-01T02:30:51;10.20;99.90
15426;DHT22;7812;50.072;7.036;2023-06-01T02:33:17;10.30;99.90
15426;DHT22;7812;50.072;7.036;2023-06-01T02:35:42;10.20;99.90
15426;DHT22;7812;50.072;7.036;2023-06-01T02:38:08;10.10;99.90
15426;DHT22;7812;50.072;7.036;2023-06-01T02:40:34;10.10;99.90
15426;DHT22;7812;50.072;7.036;2023-06-01T02:43:00;10.10;99.90
15426;DHT22;7812;50.072;7.036;2023-06-01T02:45:25;10.00;99.90
15426;DHT22;7812;50.072;7.036;2023-06-01T02:47:51;10.10;99.90
15426;DHT22;7812;50.072;7.036;2023-06-01T02:50:16;10.10;99.90
15426;DHT22;7812;50.072;7.036;2023-06-01T02:52:42;10.10;99.90
15426;DHT22;7812;50.072;7.036;2023-06-01T02:55:09;10.10;99.90
15426;DHT22;7812;50.072;7.036;2023-06-01T02:57:35;10.10;99.90
15426;DHT22;7812;50.072;7.036;2023-06-01T03:00:00;10.10;99.90
15426;DHT22;7812;50.072;7.036;2023-06-01T03:02:26;10.00;99.90
15426;DHT22;7812;50.072;7.036;2023-06-01T03:04:53;10.00;99.90
15426;DHT22;7812;50.072;7.036;2023-06-01T03:07:18;10.00;99.90
15426;DHT22;7812;50.072;7.036;2023-06-01T03:09:44;10.00;99.90
15426;DHT22;7812;50.072;7.036;2023-06-01T03:12:10;10.00;99.90
15426;DHT22;7812;50.072;7.036;2023-06-01T03:14:36;10.00;99.90
15426;DHT22;7812;50.072;7.036;2023-06-01T03:17:01;10.00;99.90
15426;DHT22;7812;50.072;7.036;2023-06-01T03:19:27;9.90;99.90
15426;DHT22;7812;50.072;7.036;2023-06-01T03:21:53;9.90;99.90
15426;DHT22;7812;50.072;7.036;2023-06-01T03:24:18;9.90;99.90
15426;DHT22;7812;50.072;7.036;2023-06-01T03:26:44;9.90;99.90
15426;DHT22;7812;50.072;7.036;2023-06-01T03:29:10;9.70;99.90
15426;DHT22;7812;50.072;7.036;2023-06-01T03:31:35;9.60;99.90
15426;DHT22;7812;50.072;7.036;2023-06-01T03:34:01;9.70;99.90
15426;DHT22;7812;50.072;7.036;2023-06-01T03:36:27;9.70;99.90
15426;DHT22;7812;50.072;7.036;2023-06-01T03:38:53;9.70;99.90
15426;DHT22;7812;50.072;7.036;2023-06-01T03:41:19;9.70;99.90
15426;DHT22;7812;50.072;7.036;2023-06-01T03:43:45;9.70;99.90
15426;DHT22;7812;50.072;7.036;2023-06-01T03:46:11;9.70;99.90
15426;DHT22;7812;50.072;7.036;2023-06-01T03:48:37;9.80;99.90
15426;DHT22;7812;50.072;7.036;2023-06-01T03:51:02;9.70;99.90
15426;DHT22;7812;50.072;7.036;2023-06-01T03:53:29;9.70;99.90
15426;DHT22;7812;50.072;7.036;2023-06-01T03:55:56;9.80;99.90
15426;DHT22;7812;50.072;7.036;2023-06-01T03:58:22;9.90;99.90
15426;DHT22;7812;50.072;7.036;2023-06-01T04:00:49;9.90;99.90
15426;DHT22;7812;50.072;7.036;2023-06-01T04:03:15;9.90;99.90
15426;DHT22;7812;50.072;7.036;2023-06-01T04:05:41;9.80;99.90
15426;DHT22;7812;50.072;7.036;2023-06-01T04:08:07;9.90;99.90
15426;DHT22;7812;50.072;7.036;2023-06-01T04:10:34;9.90;99.90
15426;DHT22;7812;50.072;7.036;2023-06-01T04:13:00;9.90;99.90
15426;DHT22;7812;50.072;7.036;2023-06-01T04:15:25;9.90;99.90
15426;DHT22;7812;50.072;7.036;2023-06-01T04:17:51;9.90;99.90
15426;DHT22;7812;50.072;7.036;2023-06-01T04:20:17;9.80;99.90
15426;DHT22;7812;50.072;7.036;2023-06-01T04:22:44;9.80;99.90
15426;DHT22;7812;50.072;7.036;2023-06-01T04:25:12;9.90;99.90
15426;DHT22;7812;50.072;7.036;2023-06-01T04:27:42;10.00;99.90
15426;DHT22;7812;50.072;7.036;2023-06-01T04:30:10;10.10;99.90
15426;DHT22;7812;50.072;7.036;2023-06-01T04:32:37;10.20;99.90
15426;DHT22;7812;50.072;7.036;2023-06-01T04:35:06;10.10;99.90
15426;DHT22;7812;50.072;7.036;2023-06-01T04:37:33;10.10;99.90
15426;DHT22;7812;50.072;7.036;2023-06-01T04:40:00;10.10;99.90
15426;DHT22;7812;50.072;7.036;2023-06-01T04:42:26;10.00;99.90
15426;DHT22;7812;50.072;7.036;2023-06-01T04:44:53;10.00;99.90
15426;DHT22;7812;50.072;7.036;2023-06-01T04:47:19;10.10;99.90
15426;DHT22;7812;50.072;7.036;2023-06-01T04:49:47;10.20;99.90
15426;DHT22;7812;50.072;7.036;2023-06-01T04:52:13;10.10;99.90
15426;DHT22;7812;50.072;7.036;2023-06-01T04:54:39;10.20;99.90
15426;DHT22;7812;50.072;7.036;2023-06-01T04:57:05;10.20;99.90
15426;DHT22;7812;50.072;7.036;2023-06-01T04:59:32;10.20;99.90
15426;DHT22;7812;50.072;7.036;2023-06-01T05:01:59;10.40;99.90
15426;DHT22;7812;50.072;7.036;2023-06-01T05:04:25;10.70;99.90
15426;DHT22;7812;50.072;7.036;2023-06-01T05:06:51;10.90;99.90
15426;DHT22;7812;50.072;7.036;2023-06-01T05:09:17;11.10;99.90
15426;DHT22;7812;50.072;7.036;2023-06-01T05:11:43;11.20;99.90
15426;DHT22;7812;50.072;7.036;2023-06-01T05:14:09;11.30;99.90
15426;DHT22;7812;50.072;7.036;2023-06-01T05:16:35;11.60;99.90
15426;DHT22;7812;50.072;7.036;2023-06-01T05:19:01;11.80;99.90
15426;DHT22;7812;50.072;7.036;2023-06-01T05:21:27;12.00;99.90
15426;DHT22;7812;50.072;7.036;2023-06-01T05:23:53;12.30;99.90
15426;DHT22;7812;50.072;7.036;2023-06-01T05:26:19;12.70;99.90
15426;DHT22;7812;50.072;7.036;2023-06-01T05:28:44;13.00;99.90
15426;DHT22;7812;50.072;7.036;2023-06-01T05:31:12;13.30;99.90
15426;DHT22;7812;50.072;7.036;2023-06-01T05:33:37;13.60;99.90
15426;DHT22;7812;50.072;7.036;2023-06-01T05:36:03;13.90;99.90
15426;DHT22;7812;50.072;7.036;2023-06-01T05:38:29;14.10;99.90
15426;DHT22;7812;50.072;7.036;2023-06-01T05:40:55;14.40;99.90
15426;DHT22;7812;50.072;7.036;2023-06-01T05:43:20;14.70;99.90
15426;DHT22;7812;50.072;7.036;2023-06-01T05:45:46;15.00;99.90
15426;DHT22;7812;50.072;7.036;2023-06-01T05:48:13;15.30;99.90
15426;DHT22;7812;50.072;7.036;2023-06-01T05:50:40;15.70;99.90
15426;DHT22;7812;50.072;7.036;2023-06-01T05:53:07;16.20;99.90
15426;DHT22;7812;50.072;7.036;2023-06-01T05:55:33;16.60;99.90
15426;DHT22;7812;50.072;7.036;2023-06-01T05:57:59;16.80;99.90
15426;DHT22;7812;50.072;7.036;2023-06-01T06:00:24;17.10;99.90
15426;DHT22;7812;50.072;7.036;2023-06-01T06:02:50;17.30;99.90
15426;DHT22;7812;50.072;7.036;2023-06-01T06:05:16;17.50;99.90
15426;DHT22;7812;50.072;7.036;2023-06-01T06:07:42;17.60;99.90
15426;DHT22;7812;50.072;7.036;2023-06-01T06:10:08;17.90;99.90
15426;DHT22;7812;50.072;7.036;2023-06-01T06:12:35;18.20;99.90
15426;DHT22;7812;50.072;7.036;2023-06-01T06:15:00;18.60;99.90
15426;DHT22;7812;50.072;7.036;2023-06-01T06:17:26;18.90;99.90
15426;DHT22;7812;50.072;7.036;2023-06-01T06:19:52;18.80;99.90
15426;DHT22;7812;50.072;7.036;2023-06-01T06:22:17;19.00;99.90
15426;DHT22;7812;50.072;7.036;2023-06-01T06:24:44;19.40;99.90
15426;DHT22;7812;50.072;7.036;2023-06-01T06:27:10;20.10;99.90
15426;DHT22;7812;50.072;7.036;2023-06-01T06:29:36;20.60;99.90
15426;DHT22;7812;50.072;7.036;2023-06-01T06:32:03;21.00;99.90
15426;DHT22;7812;50.072;7.036;2023-06-01T06:34:29;21.50;99.90
15426;DHT22;7812;50.072;7.036;2023-06-01T06:37:02;22.10;99.90
15426;DHT22;7812;50.072;7.036;2023-06-01T06:39:28;22.90;99.90
15426;DHT22;7812;50.072;7.036;2023-06-01T06:41:54;23.30;99.90
15426;DHT22;7812;50.072;7.036;2023-06-01T06:44:19;23.50;99.90
15426;DHT22;7812;50.072;7.036;2023-06-01T06:46:45;24.00;99.90
15426;DHT22;7812;50.072;7.036;2023-06-01T06:49:11;23.70;99.90
15426;DHT22;7812;50.072;7.036;2023-06-01T06:51:37;23.20;99.90
15426;DHT22;7812;50.072;7.036;2023-06-01T06:54:03;23.50;99.90
15426;DHT22;7812;50.072;7.036;2023-06-01T06:56:31;24.40;99.90
15426;DHT22;7812;50.072;7.036;2023-06-01T06:58:56;24.30;99.90
15426;DHT22;7812;50.072;7.036;2023-06-01T07:01:22;24.80;99.90
15426;DHT22;7812;50.072;7.036;2023-06-01T07:03:53;26.10;99.90
15426;DHT22;7812;50.072;7.036;2023-06-01T07:06:19;26.10;99.90
15426;DHT22;7812;50.072;7.036;2023-06-01T07:08:46;26.10;99.90
15426;DHT22;7812;50.072;7.036;2023-06-01T07:11:11;26.30;99.90
15426;DHT22;7812;50.072;7.036;2023-06-01T07:13:37;26.70;99.90
15426;DHT22;7812;50.072;7.036;2023-06-01T07:16:03;26.10;99.90
15426;DHT22;7812;50.072;7.036;2023-06-01T07:18:30;26.30;99.90
15426;DHT22;7812;50.072;7.036;2023-06-01T07:20:57;25.80;99.90
15426;DHT22;7812;50.072;7.036;2023-06-01T07:23:23;26.10;99.90
15426;DHT22;7812;50.072;7.036;2023-06-01T07:25:48;26.10;99.90
15426;DHT22;7812;50.072;7.036;2023-06-01T07:28:14;26.50;99.90
15426;DHT22;7812;50.072;7.036;2023-06-01T07:30:41;27.00;99.90
15426;DHT22;7812;50.072;7.036;2023-06-01T07:33:06;26.80;99.90
15426;DHT22;7812;50.072;7.036;2023-06-01T07:35:34;26.50;99.90
15426;DHT22;7812;50.072;7.036;2023-06-01T07:38:00;27.30;99.90
15426;DHT22;7812;50.072;7.036;2023-06-01T07:40:29;27.70;99.90
15426;DHT22;7812;50.072;7.036;2023-06-01T07:42:55;27.50;99.90
15426;DHT22;7812;50.072;7.036;2023-06-01T07:45:21;27.50;99.90
15426;DHT22;7812;50.072;7.036;2023-06-01T07:47:47;27.70;99.90
15426;DHT22;7812;50.072;7.036;2023-06-01T07:50:13;27.50;99.90
15426;DHT22;7812;50.072;7.036;2023-06-01T07:52:39;27.30;99.90
15426;DHT22;7812;50.072;7.036;2023-06-01T07:55:06;27.00;99.90
15426;DHT22;7812;50.072;7.036;2023-06-01T07:57:34;26.70;99.90
15426;DHT22;7812;50.072;7.036;2023-06-01T08:00:02;27.60;99.90
15426;DHT22;7812;50.072;7.036;2023-06-01T08:02:29;27.70;99.90
15426;DHT22;7812;50.072;7.036;2023-06-01T08:04:55;28.80;99.90
15426;DHT22;7812;50.072;7.036;2023-06-01T08:07:22;28.60;99.90
15426;DHT22;7812;50.072;7.036;2023-06-01T08:09:48;29.20;99.90
15426;DHT22;7812;50.072;7.036;2023-06-01T08:12:14;29.30;99.90
15426;DHT22;7812;50.072;7.036;2023-06-01T08:14:40;29.80;99.90
15426;DHT22;7812;50.072;7.036;2023-06-01T08:17:07;30.10;99.90
15426;DHT22;7812;50.072;7.036;2023-06-01T08:19:34;30.10;99.90
15426;DHT22;7812;50.072;7.036;2023-06-01T08:21:59;28.40;99.90
15426;DHT22;7812;50.072;7.036;2023-06-01T08:24:25;28.50;99.90
15426;DHT22;7812;50.072;7.036;2023-06-01T08:26:55;28.60;99.90
15426;DHT22;7812;50.072;7.036;2023-06-01T08:29:21;29.10;99.90
15426;DHT22;7812;50.072;7.036;2023-06-01T08:31:47;29.60;99.90
15426;DHT22;7812;50.072;7.036;2023-06-01T08:34:13;30.40;99.90
15426;DHT22;7812;50.072;7.036;2023-06-01T08:36:38;30.70;99.90
15426;DHT22;7812;50.072;7.036;2023-06-01T08:39:20;31.30;99.90
15426;DHT22;7812;50.072;7.036;2023-06-01T08:41:54;30.30;99.90
15426;DHT22;7812;50.072;7.036;2023-06-01T08:44:26;30.80;99.90
15426;DHT22;7812;50.072;7.036;2023-06-01T08:46:54;29.60;99.90
15426;DHT22;7812;50.072;7.036;2023-06-01T08:49:21;30.00;99.90
15426;DHT22;7812;50.072;7.036;2023-06-01T08:51:51;29.10;99.90
15426;DHT22;7812;50.072;7.036;2023-06-01T08:54:20;29.40;99.90
15426;DHT22;7812;50.072;7.036;2023-06-01T08:56:46;29.70;99.90
15426;DHT22;7812;50.072;7.036;2023-06-01T08:59:12;29.00;99.90
15426;DHT22;7812;50.072;7.036;2023-06-01T09:01:39;29.30;99.90
15426;DHT22;7812;50.072;7.036;2023-06-01T09:04:05;30.60;99.90
15426;DHT22;7812;50.072;7.036;2023-06-01T09:06:31;31.50;99.90
15426;DHT22;7812;50.072;7.036;2023-06-01T09:08:56;32.20;99.70
15426;DHT22;7812;50.072;7.036;2023-06-01T09:11:25;31.00;98.90
15426;DHT22;7812;50.072;7.036;2023-06-01T09:13:51;29.90;99.50
15426;DHT22;7812;50.072;7.036;2023-06-01T09:16:16;30.20;99.90
15426;DHT22;7812;50.072;7.036;2023-06-01T09:18:54;30.20;99.20
15426;DHT22;7812;50.072;7.036;2023-06-01T09:21:21;28.80;99.70
15426;DHT22;7812;50.072;7.036;2023-06-01T09:23:46;28.60;99.90
15426;DHT22;7812;50.072;7.036;2023-06-01T09:26:14;27.50;99.90
15426;DHT22;7812;50.072;7.036;2023-06-01T09:31:45;28.90;99.90
15426;DHT22;7812;50.072;7.036;2023-06-01T09:34:15;29.10;99.70
15426;DHT22;7812;50.072;7.036;2023-06-01T09:36:50;29.60;97.70
15426;DHT22;7812;50.072;7.036;2023-06-01T09:39:18;29.70;98.10
15426;DHT22;7812;50.072;7.036;2023-06-01T09:41:56;30.70;97.10
15426;DHT22;7812;50.072;7.036;2023-06-01T09:46:55;31.70;95.60
15426;DHT22;7812;50.072;7.036;2023-06-01T09:49:26;30.90;96.00
15426;DHT22;7812;50.072;7.036;2023-06-01T09:52:14;29.40;96.40
15426;DHT22;7812;50.072;7.036;2023-06-01T09:54:50;29.60;96.20
15426;DHT22;7812;50.072;7.036;2023-06-01T09:57:24;29.80;96.20
15426;DHT22;7812;50.072;7.036;2023-06-01T09:59:51;29.10;96.40
15426;DHT22;7812;50.072;7.036;2023-06-01T10:02:21;28.00;96.50
15426;DHT22;7812;50.072;7.036;2023-06-01T10:04:54;29.00;96.60
15426;DHT22;7812;50.072;7.036;2023-06-01T10:07:31;28.90;95.70
15426;DHT22;7812;50.072;7.036;2023-06-01T10:09:59;29.60;95.60
15426;DHT22;7812;50.072;7.036;2023-06-01T10:12:27;31.10;94.90
15426;DHT22;7812;50.072;7.036;2023-06-01T10:14:55;32.00;94.00
15426;DHT22;7812;50.072;7.036;2023-06-01T10:17:21;30.80;93.50
15426;DHT22;7812;50.072;7.036;2023-06-01T10:19:47;29.50;95.10
15426;DHT22;7812;50.072;7.036;2023-06-01T10:22:15;28.20;95.00
15426;DHT22;7812;50.072;7.036;2023-06-01T10:24:43;28.90;94.80
15426;DHT22;7812;50.072;7.036;2023-06-01T10:29:48;30.00;94.90
15426;DHT22;7812;50.072;7.036;2023-06-01T10:35:02;32.10;93.50
15426;DHT22;7812;50.072;7.036;2023-06-01T10:37:27;32.60;93.10
15426;DHT22;7812;50.072;7.036;2023-06-01T10:39:53;33.30;93.40
15426;DHT22;7812;50.072;7.036;2023-06-01T10:42:35;32.90;91.60
15426;DHT22;7812;50.072;7.036;2023-06-01T10:45:02;30.40;92.50
15426;DHT22;7812;50.072;7.036;2023-06-01T10:52:38;29.70;94.10
15426;DHT22;7812;50.072;7.036;2023-06-01T10:57:39;29.80;93.50
15426;DHT22;7812;50.072;7.036;2023-06-01T11:00:24;30.20;93.50
15426;DHT22;7812;50.072;7.036;2023-06-01T11:02:57;29.20;94.60
15426;DHT22;7812;50.072;7.036;2023-06-01T11:05:51;28.80;94.60
15426;DHT22;7812;50.072;7.036;2023-06-01T11:10:57;27.90;95.00
15426;DHT22;7812;50.072;7.036;2023-06-01T11:18:51;28.60;94.90
15426;DHT22;7812;50.072;7.036;2023-06-01T11:23:58;30.80;94.00
15426;DHT22;7812;50.072;7.036;2023-06-01T11:26:35;30.60;92.10
15426;DHT22;7812;50.072;7.036;2023-06-01T11:31:37;31.80;91.90
15426;DHT22;7812;50.072;7.036;2023-06-01T11:34:04;33.40;91.40
15426;DHT22;7812;50.072;7.036;2023-06-01T11:36:30;34.50;91.10
15426;DHT22;7812;50.072;7.036;2023-06-01T11:38:56;35.70;88.90
15426;DHT22;7812;50.072;7.036;2023-06-01T11:41:23;36.70;86.00
15426;DHT22;7812;50.072;7.036;2023-06-01T11:43:56;32.40;84.10
15426;DHT22;7812;50.072;7.036;2023-06-01T11:46:23;32.50;85.70
15426;DHT22;7812;50.072;7.036;2023-06-01T11:49:03;31.70;87.40
15426;DHT22;7812;50.072;7.036;2023-06-01T11:51:33;30.90;86.20
15426;DHT22;7812;50.072;7.036;2023-06-01T11:54:01;28.60;89.50
15426;DHT22;7812;50.072;7.036;2023-06-01T11:56:31;28.40;90.80
15426;DHT22;7812;50.072;7.036;2023-06-01T11:58:59;29.90;90.60
15426;DHT22;7812;50.072;7.036;2023-06-01T12:01:26;29.70;90.40
15426;DHT22;7812;50.072;7.036;2023-06-01T12:03:52;29.40;90.70
15426;DHT22;7812;50.072;7.036;2023-06-01T12:06:23;28.70;91.10
15426;DHT22;7812;50.072;7.036;2023-06-01T12:08:53;28.80;91.70
15426;DHT22;7812;50.072;7.036;2023-06-01T12:11:23;28.10;91.30
15426;DHT22;7812;50.072;7.036;2023-06-01T12:13:52;28.80;91.50
15426;DHT22;7812;50.072;7.036;2023-06-01T12:16:18;28.70;91.10
15426;DHT22;7812;50.072;7.036;2023-06-01T12:18:44;29.10;90.90
15426;DHT22;7812;50.072;7.036;2023-06-01T12:21:11;29.60;90.70
15426;DHT22;7812;50.072;7.036;2023-06-01T12:23:37;29.20;90.20
15426;DHT22;7812;50.072;7.036;2023-06-01T12:26:03;28.90;89.10
15426;DHT22;7812;50.072;7.036;2023-06-01T12:28:29;28.50;90.40
15426;DHT22;7812;50.072;7.036;2023-06-01T12:31:12;28.60;90.20
15426;DHT22;7812;50.072;7.036;2023-06-01T12:33:39;27.40;90.60
15426;DHT22;7812;50.072;7.036;2023-06-01T12:36:07;27.60;91.10
15426;DHT22;7812;50.072;7.036;2023-06-01T12:38:50;28.30;91.40
15426;DHT22;7812;50.072;7.036;2023-06-01T12:41:17;29.00;90.80
15426;DHT22;7812;50.072;7.036;2023-06-01T12:44:03;28.80;91.20
15426;DHT22;7812;50.072;7.036;2023-06-01T12:46:30;28.30;91.40
15426;DHT22;7812;50.072;7.036;2023-06-01T12:49:12;28.50;92.10
15426;DHT22;7812;50.072;7.036;2023-06-01T12:51:38;28.60;92.10
15426;DHT22;7812;50.072;7.036;2023-06-01T12:54:04;28.50;91.70
15426;DHT22;7812;50.072;7.036;2023-06-01T12:56:29;28.30;91.70
15426;DHT22;7812;50.072;7.036;2023-06-01T12:58:55;28.10;92.00
15426;DHT22;7812;50.072;7.036;2023-06-01T13:01:21;27.60;91.40
15426;DHT22;7812;50.072;7.036;2023-06-01T13:03:48;27.70;91.00
15426;DHT22;7812;50.072;7.036;2023-06-01T13:06:17;27.10;90.80
15426;DHT22;7812;50.072;7.036;2023-06-01T13:08:43;26.70;90.70
15426;DHT22;7812;50.072;7.036;2023-06-01T13:11:08;26.60;90.10
15426;DHT22;7812;50.072;7.036;2023-06-01T13:13:35;26.80;90.00
15426;DHT22;7812;50.072;7.036;2023-06-01T13:16:01;26.50;88.80
15426;DHT22;7812;50.072;7.036;2023-06-01T13:18:29;26.30;88.70
15426;DHT22;7812;50.072;7.036;2023-06-01T13:20:55;26.50;87.80
15426;DHT22;7812;50.072;7.036;2023-06-01T13:23:21;26.90;89.40
15426;DHT22;7812;50.072;7.036;2023-06-01T13:25:47;27.60;85.10
15426;DHT22;7812;50.072;7.036;2023-06-01T13:28:13;27.50;84.00
15426;DHT22;7812;50.072;7.036;2023-06-01T13:30:42;27.30;81.50
15426;DHT22;7812;50.072;7.036;2023-06-01T13:33:08;26.80;73.70
15426;DHT22;7812;50.072;7.036;2023-06-01T13:35:34;26.60;72.70
15426;DHT22;7812;50.072;7.036;2023-06-01T13:38:01;26.50;69.90
15426;DHT22;7812;50.072;7.036;2023-06-01T13:40:26;26.40;71.20
15426;DHT22;7812;50.072;7.036;2023-06-01T13:42:52;26.90;70.70
15426;DHT22;7812;50.072;7.036;2023-06-01T13:45:19;26.50;68.10
15426;DHT22;7812;50.072;7.036;2023-06-01T13:47:45;25.70;68.70
15426;DHT22;7812;50.072;7.036;2023-06-01T13:50:12;25.50;69.20
15426;DHT22;7812;50.072;7.036;2023-06-01T13:52:39;25.30;68.50
15426;DHT22;7812;50.072;7.036;2023-06-01T13:55:05;25.40;69.50
15426;DHT22;7812;50.072;7.036;2023-06-01T13:57:32;25.40;69.90
15426;DHT22;7812;50.072;7.036;2023-06-01T13:59:58;25.60;70.10
15426;DHT22;7812;50.072;7.036;2023-06-01T14:02:24;25.50;72.30
15426;DHT22;7812;50.072;7.036;2023-06-01T14:04:50;25.10;75.40
15426;DHT22;7812;50.072;7.036;2023-06-01T14:07:17;25.50;77.00
15426;DHT22;7812;50.072;7.036;2023-06-01T14:09:44;25.90;76.60
15426;DHT22;7812;50.072;7.036;2023-06-01T14:12:10;26.10;77.90
15426;DHT22;7812;50.072;7.036;2023-06-01T14:14:37;25.80;80.60
15426;DHT22;7812;50.072;7.036;2023-06-01T14:17:02;26.00;80.80
15426;DHT22;7812;50.072;7.036;2023-06-01T14:19:28;25.80;80.80
15426;DHT22;7812;50.072;7.036;2023-06-01T14:21:54;25.40;80.60
15426;DHT22;7812;50.072;7.036;2023-06-01T14:24:20;25.20;80.40
15426;DHT22;7812;50.072;7.036;2023-06-01T14:26:45;25.40;80.40
15426;DHT22;7812;50.072;7.036;2023-06-01T14:29:11;25.60;74.30
15426;DHT22;7812;50.072;7.036;2023-06-01T14:31:37;25.40;74.70
15426;DHT22;7812;50.072;7.036;2023-06-01T14:34:03;25.20;75.30
15426;DHT22;7812;50.072;7.036;2023-06-01T14:36:29;25.10;74.00
15426;DHT22;7812;50.072;7.036;2023-06-01T14:38:55;25.30;77.20
15426;DHT22;7812;50.072;7.036;2023-06-01T14:41:21;25.20;74.80
15426;DHT22;7812;50.072;7.036;2023-06-01T14:43:46;25.20;75.30
15426;DHT22;7812;50.072;7.036;2023-06-01T14:46:12;25.30;76.20
15426;DHT22;7812;50.072;7.036;2023-06-01T14:48:38;25.20;75.60
15426;DHT22;7812;50.072;7.036;2023-06-01T14:51:03;25.50;75.90
15426;DHT22;7812;50.072;7.036;2023-06-01T14:53:29;25.20;76.60
15426;DHT22;7812;50.072;7.036;2023-06-01T14:55:55;25.00;79.00
15426;DHT22;7812;50.072;7.036;2023-06-01T14:58:22;24.90;79.00
15426;DHT22;7812;50.072;7.036;2023-06-01T15:00:48;24.90;79.20
15426;DHT22;7812;50.072;7.036;2023-06-01T15:03:14;25.20;77.60
15426;DHT22;7812;50.072;7.036;2023-06-01T15:05:39;25.50;78.10
15426;DHT22;7812;50.072;7.036;2023-06-01T15:08:06;25.80;77.70
15426;DHT22;7812;50.072;7.036;2023-06-01T15:10:32;26.20;77.90
15426;DHT22;7812;50.072;7.036;2023-06-01T15:12:58;26.40;78.20
15426;DHT22;7812;50.072;7.036;2023-06-01T15:15:24;26.30;77.70
15426;DHT22;7812;50.072;7.036;2023-06-01T15:17:49;26.10;75.80
15426;DHT22;7812;50.072;7.036;2023-06-01T15:20:15;26.30;76.10
15426;DHT22;7812;50.072;7.036;2023-06-01T15:22:41;26.40;75.10
15426;DHT22;7812;50.072;7.036;2023-06-01T15:25:08;26.40;74.50
15426;DHT22;7812;50.072;7.036;2023-06-01T15:27:34;26.00;69.70
15426;DHT22;7812;50.072;7.036;2023-06-01T15:30:01;25.70;71.00
15426;DHT22;7812;50.072;7.036;2023-06-01T15:32:27;25.60;71.10
15426;DHT22;7812;50.072;7.036;2023-06-01T15:34:52;25.70;72.00
15426;DHT22;7812;50.072;7.036;2023-06-01T15:37:18;25.80;71.10
15426;DHT22;7812;50.072;7.036;2023-06-01T15:39:45;25.50;72.10
15426;DHT22;7812;50.072;7.036;2023-06-01T15:42:11;25.70;73.40
15426;DHT22;7812;50.072;7.036;2023-06-01T15:44:40;25.90;73.90
15426;DHT22;7812;50.072;7.036;2023-06-01T15:47:07;25.80;71.70
15426;DHT22;7812;50.072;7.036;2023-06-01T15:49:32;25.70;71.50
15426;DHT22;7812;50.072;7.036;2023-06-01T15:51:59;25.70;72.40
15426;DHT22;7812;50.072;7.036;2023-06-01T15:54:26;25.70;73.80
15426;DHT22;7812;50.072;7.036;2023-06-01T15:56:52;25.60;72.90
15426;DHT22;7812;50.072;7.036;2023-06-01T15:59:17;25.30;73.90
15426;DHT22;7812;50.072;7.036;2023-06-01T16:01:43;25.40;77.10
15426;DHT22;7812;50.072;7.036;2023-06-01T16:04:09;25.50;76.60
15426;DHT22;7812;50.072;7.036;2023-06-01T16:06:35;25.30;79.60
15426;DHT22;7812;50.072;7.036;2023-06-01T16:09:01;24.90;79.50
15426;DHT22;7812;50.072;7.036;2023-06-01T16:11:26;24.70;80.60
15426;DHT22;7812;50.072;7.036;2023-06-01T16:13:53;24.70;80.50
15426;DHT22;7812;50.072;7.036;2023-06-01T16:16:19;24.90;80.90
15426;DHT22;7812;50.072;7.036;2023-06-01T16:18:45;25.00;82.10
15426;DHT22;7812;50.072;7.036;2023-06-01T16:21:11;24.80;82.00
15426;DHT22;7812;50.072;7.036;2023-06-01T16:23:37;24.60;83.20
15426;DHT22;7812;50.072;7.036;2023-06-01T16:26:03;24.40;84.50
15426;DHT22;7812;50.072;7.036;2023-06-01T16:28:29;24.10;84.60
15426;DHT22;7812;50.072;7.036;2023-06-01T16:30:55;23.90;85.30